Observation data for Graham on 02/22/2019      Previous  Date  Next       Current Mesonet Observations  Soil Data  Daily Summary Page  Observations in Plain Language
KGHS 220600Z 11007KT 05/M03 A2987 RMK A01 T00451026  RH  060%=      5-min Rain = 0
KGHS 220605Z 11008KT 04/M03 A2987 RMK A01 T00431025  RH  061%=      5-min Rain = 0
KGHS 220610Z 11010KT 04/M03 A2987 RMK A01 T00431026  RH  061%=      5-min Rain = 0
KGHS 220615Z 11008KT 04/M03 A2988 RMK A01 T00431027  RH  061%=      5-min Rain = 0
KGHS 220620Z 10007KT 04/M03 A2988 RMK A01 T00421029  RH  061%=      5-min Rain = 0
KGHS 220625Z 10009KT 04/M03 A2988 RMK A01 T00411029  RH  061%=      5-min Rain = 0
KGHS 220630Z 10009KT 04/M03 A2987 RMK A01 T00411028  RH  061%=      5-min Rain = 0
KGHS 220635Z 09009KT 04/M03 A2987 RMK A01 T00411026  RH  062%=      5-min Rain = 0
KGHS 220640Z 09010KT 04/M02 A2987 RMK A01 T00411024  RH  063%=      5-min Rain = 0
KGHS 220645Z 10009KT 04/M02 A2987 RMK A01 T00401023  RH  064%=      5-min Rain = 0
KGHS 220650Z 10010KT 04/M02 A2987 RMK A01 T00391022  RH  065%=      5-min Rain = 0
KGHS 220655Z 10009KT 04/M02 A2987 RMK A01 T00381021  RH  066%=      5-min Rain = 0
KGHS 220700Z 10009KT 04/M02 A2987 RMK A01 T00391019  RH  066%=      5-min Rain = 0
KGHS 220705Z 10010KT 04/M02 A2987 RMK A01 T00381018  RH  067%=      5-min Rain = 0
KGHS 220710Z 09009KT 04/M02 A2987 RMK A01 T00371018  RH  068%=      5-min Rain = 0
KGHS 220715Z 09009KT 04/M02 A2987 RMK A01 T00361018  RH  069%=      5-min Rain = 0
KGHS 220720Z 09010KT 04/M02 A2987 RMK A01 T00351017  RH  069%=      5-min Rain = 0
KGHS 220725Z 09010KT 03/M02 A2987 RMK A01 T00331017  RH  070%=      5-min Rain = 0
KGHS 220730Z 09011KT 03/M02 A2987 RMK A01 T00331015  RH  071%=      5-min Rain = 0
KGHS 220735Z 09010KT 03/M01 A2987 RMK A01 T00341014  RH  072%=      5-min Rain = 0
KGHS 220740Z 10009KT 03/M01 A2987 RMK A01 T00341012  RH  072%=      5-min Rain = 0
KGHS 220745Z 11008KT 03/M01 A2987 RMK A01 T00341012  RH  073%=      5-min Rain = 0
KGHS 220750Z 10009KT 03/M01 A2987 RMK A01 T00341011  RH  073%=      5-min Rain = 0
KGHS 220755Z 10009KT 03/M01 A2987 RMK A01 T00341010  RH  074%=      5-min Rain = 0
KGHS 220800Z 10009KT 03/M01 A2987 RMK A01 T00341008  RH  074%=      5-min Rain = 0
KGHS 220805Z 09008KT 03/M01 A2987 RMK A01 T00341008  RH  075%=      5-min Rain = 0
KGHS 220810Z 09008KT 03/M01 A2987 RMK A01 T00321009  RH  075%=      5-min Rain = 0
KGHS 220815Z 09009KT 03/M01 A2987 RMK A01 T00311008  RH  076%=      5-min Rain = 0
KGHS 220820Z 08008KT 03/M01 A2987 RMK A01 T00301008  RH  077%=      5-min Rain = 0
KGHS 220825Z 08008KT 03/M01 A2987 RMK A01 T00291008  RH  077%=      5-min Rain = 0
KGHS 220830Z 08008KT 03/M01 A2987 RMK A01 T00291008  RH  078%=      5-min Rain = 0
KGHS 220835Z 07006KT 03/M01 A2987 RMK A01 T00281008  RH  078%=      5-min Rain = 0
KGHS 220840Z 07006KT 03/M01 A2987 RMK A01 T00251010  RH  078%=      5-min Rain = 0
KGHS 220845Z 07007KT 02/M01 A2987 RMK A01 T00231011  RH  079%=      5-min Rain = 0
KGHS 220850Z 07006KT 02/M01 A2988 RMK A01 T00211010  RH  081%=      5-min Rain = 0
KGHS 220855Z 07006KT 02/M01 A2987 RMK A01 T00201010  RH  081%=      5-min Rain = 0
KGHS 220900Z 06006KT 02/M01 A2987 RMK A01 T00191011  RH  082%=      5-min Rain = 0
KGHS 220905Z 06006KT 02/M02 A2987 RMK A01 T00151015  RH  081%=      5-min Rain = 0
KGHS 220910Z 06007KT 01/M02 A2987 RMK A01 T00121015  RH  083%=      5-min Rain = 0
KGHS 220915Z 06006KT 01/M01 A2987 RMK A01 T00121014  RH  084%=      5-min Rain = 0
KGHS 220920Z 06007KT 01/M02 A2987 RMK A01 T00111015  RH  084%=      5-min Rain = 0
KGHS 220925Z 06006KT 01/M01 A2987 RMK A01 T00111014  RH  084%=      5-min Rain = 0
KGHS 220930Z 06006KT 01/M01 A2987 RMK A01 T00111014  RH  084%=      5-min Rain = 0
KGHS 220935Z 05007KT 01/M02 A2987 RMK A01 T00091016  RH  084%=      5-min Rain = 0
KGHS 220940Z 06006KT 01/M02 A2988 RMK A01 T00071018  RH  084%=      5-min Rain = 0
KGHS 220945Z 07004KT 01/M02 A2988 RMK A01 T00051019  RH  084%=      5-min Rain = 0
KGHS 220950Z 06005KT 01/M02 A2988 RMK A01 T00061017  RH  086%=      5-min Rain = 0
KGHS 220955Z 05006KT 01/M02 A2988 RMK A01 T00061017  RH  085%=      5-min Rain = 0
KGHS 221000Z 05006KT 01/M02 A2988 RMK A01 T00061017  RH  085%=      5-min Rain = 0
KGHS 221005Z 07005KT 01/M02 A2988 RMK A01 T00061017  RH  085%=      5-min Rain = 0
KGHS 221010Z 07007KT 01/M02 A2987 RMK A01 T00081015  RH  086%=      5-min Rain = 0
KGHS 221015Z 07007KT 01/M01 A2987 RMK A01 T00101011  RH  087%=      5-min Rain = 0
KGHS 221020Z 06007KT 01/M01 A2987 RMK A01 T00131006  RH  088%=      5-min Rain = 0
KGHS 221025Z 06007KT 02/M00 A2987 RMK A01 T00151002  RH  089%=      5-min Rain = 0
KGHS 221030Z 06007KT 02/M00 A2987 RMK A01 T00161001  RH  090%=      5-min Rain = 0
KGHS 221035Z 07007KT 02/M00 A2988 RMK A01 T00151001  RH  090%=      5-min Rain = 0
KGHS 221040Z 07006KT 02/00 A2988 RMK A01 T001500-0  RH  091%=      5-min Rain = 0
KGHS 221045Z 08005KT 02/00 A2988 RMK A01 T00150001  RH  091%=      5-min Rain = 0
KGHS 221050Z 09004KT 02/00 A2988 RMK A01 T00170004  RH  092%=      5-min Rain = 0
KGHS 221055Z 10003KT 02/01 A2988 RMK A01 T00180006  RH  093%=      5-min Rain = 0
KGHS 221100Z 12003KT 02/01 A2988 RMK A01 T00190007  RH  093%=      5-min Rain = 0
KGHS 221105Z 13003KT 02/00 A2988 RMK A01 T00170003  RH  092%=      5-min Rain = 0
KGHS 221110Z 15003KT 01/00 A2988 RMK A01 T00140001  RH  092%=      5-min Rain = 0
KGHS 221115Z 14002KT 01/00 A2989 RMK A01 T001300-0  RH  092%=      5-min Rain = 0
KGHS 221120Z 13002KT 01/00 A2989 RMK A01 T00120000  RH  093%=      5-min Rain = 0
KGHS 221125Z 11002KT 01/00 A2989 RMK A01 T00140004  RH  094%=      5-min Rain = 0
KGHS 221130Z 08005KT 02/01 A2989 RMK A01 T00160006  RH  094%=      5-min Rain = 0
KGHS 221135Z 09006KT 02/01 A2989 RMK A01 T00160006  RH  095%=      5-min Rain = 0
KGHS 221140Z 10005KT 02/01 A2989 RMK A01 T00170009  RH  095%=      5-min Rain = 0
KGHS 221145Z 09004KT 02/01 A299 RMK A01 T00200012  RH  096%=      5-min Rain = 0
KGHS 221150Z 10003KT 02/01 A299 RMK A01 T00200013  RH  096%=      5-min Rain = 0
KGHS 221155Z 10003KT 02/01 A299 RMK A01 T00220014  RH  096%=      5-min Rain = 0
KGHS 221200Z 10003KT 02/02 A299 RMK A01 T00230015  RH  096%=      5-min Rain = 0
KGHS 221205Z 10003KT 02/02 A2991 RMK A01 T00230016  RH  096%=      5-min Rain = 0
KGHS 221210Z 08002KT 02/02 A2991 RMK A01 T00240017  RH  096%=      5-min Rain = 0
KGHS 221215Z 07004KT 03/02 A2991 RMK A01 T00250018  RH  097%=      5-min Rain = 0
KGHS 221220Z 08004KT 03/02 A2991 RMK A01 T00270020  RH  097%=      5-min Rain = 0
KGHS 221225Z 08003KT 03/02 A2992 RMK A01 T00280021  RH  097%=      5-min Rain = 0
KGHS 221230Z 09005KT 03/02 A2992 RMK A01 T00290022  RH  097%=      5-min Rain = 0
KGHS 221235Z 09007KT 03/02 A2992 RMK A01 T00300023  RH  097%=      5-min Rain = 0
KGHS 221240Z 09007KT 03/02 A2992 RMK A01 T00300023  RH  097%=      5-min Rain = 0
KGHS 221245Z 09006KT 03/02 A2993 RMK A01 T00290022  RH  097%=      5-min Rain = 0
KGHS 221250Z 08005KT 03/02 A2993 RMK A01 T00280021  RH  097%=      5-min Rain = 0
KGHS 221255Z 07005KT 03/02 A2992 RMK A01 T00270021  RH  097%=      5-min Rain = 0
KGHS 221300Z 07006KT 03/02 A2992 RMK A01 T00270021  RH  097%=      5-min Rain = 0
KGHS 221305Z 07006KT 03/02 A2992 RMK A01 T00270021  RH  097%=      5-min Rain = 0
KGHS 221310Z 08006KT 03/02 A2992 RMK A01 T00270021  RH  098%=      5-min Rain = 0
KGHS 221315Z 07007KT 03/02 A2992 RMK A01 T00270022  RH  098%=      5-min Rain = 0
KGHS 221320Z 07007KT 03/02 A2992 RMK A01 T00280022  RH  098%=      5-min Rain = 0
KGHS 221325Z 07007KT 03/02 A2993 RMK A01 T00280022  RH  098%=      5-min Rain = 0
KGHS 221330Z 06007KT 03/02 A2993 RMK A01 T00270022  RH  098%=      5-min Rain = 0
KGHS 221335Z 06008KT 03/02 A2993 RMK A01 T00260021  RH  098%=      5-min Rain = 0
KGHS 221340Z 07008KT 03/02 A2992 RMK A01 T00260021  RH  098%=      5-min Rain = 0
KGHS 221345Z 08007KT 03/02 A2993 RMK A01 T00260021  RH  098%=      5-min Rain = 0
KGHS 221350Z 08007KT 03/02 A2993 RMK A01 T00270022  RH  098%=      5-min Rain = 0
KGHS 221355Z 07006KT 03/02 A2993 RMK A01 T00270023  RH  098%=      5-min Rain = 0
KGHS 221400Z 07005KT 03/02 A2994 RMK A01 T00280023  RH  098%=      5-min Rain = 0
KGHS 221405Z 07007KT 03/02 A2994 RMK A01 T00290024  RH  098%=      5-min Rain = 0
KGHS 221410Z 07008KT 03/03 A2994 RMK A01 T00290025  RH  098%=      5-min Rain = 0
KGHS 221415Z 08007KT 03/03 A2994 RMK A01 T00300025  RH  098%=      5-min Rain = 0
KGHS 221420Z 08007KT 03/03 A2994 RMK A01 T00310026  RH  098%=      5-min Rain = 0
KGHS 221425Z 09007KT 03/03 A2994 RMK A01 T00320027  RH  099%=      5-min Rain = 0
KGHS 221430Z 09006KT 03/03 A2994 RMK A01 T00330028  RH  099%=      5-min Rain = 0
KGHS 221435Z 09006KT 03/03 A2995 RMK A01 T00330029  RH  099%=      5-min Rain = 0
KGHS 221440Z 09005KT 03/03 A2995 RMK A01 T00340030  RH  099%=      5-min Rain = 0
KGHS 221445Z 09006KT 04/03 A2996 RMK A01 T00350031  RH  099%=      5-min Rain = 0
KGHS 221450Z 09006KT 04/03 A2996 RMK A01 T00350031  RH  099%=      5-min Rain = 0
KGHS 221455Z 09006KT 04/03 A2996 RMK A01 T00360031  RH  099%=      5-min Rain = 0
KGHS 221500Z 10006KT 04/03 A2995 RMK A01 T00360031  RH  099%=      5-min Rain = 0
KGHS 221505Z 09007KT 04/03 A2996 RMK A01 T00360032  RH  099%=      5-min Rain = 0
KGHS 221510Z 09007KT 04/03 A2996 RMK A01 T00370032  RH  099%=      5-min Rain = 0
KGHS 221515Z 09006KT 04/03 A2996 RMK A01 T00380033  RH  099%=      5-min Rain = 0
KGHS 221520Z 09006KT 04/03 A2996 RMK A01 T00390034  RH  099%=      5-min Rain = 0
KGHS 221525Z 09006KT 04/04 A2996 RMK A01 T00390035  RH  099%=      5-min Rain = 0
KGHS 221530Z 09005KT 04/04 A2996 RMK A01 T00400036  RH  099%=      5-min Rain = 0
KGHS 221535Z 10006KT 04/04 A2996 RMK A01 T00420037  RH  099%=      5-min Rain = 0
KGHS 221540Z 10008KT 04/04 A2996 RMK A01 T00420037  RH  099%=      5-min Rain = 0
KGHS 221545Z 11007KT 04/04 A2996 RMK A01 T00420037  RH  099%=      5-min Rain = 0
KGHS 221550Z 12008KT 04/04 A2996 RMK A01 T00420037  RH  099%=      5-min Rain = 0
KGHS 221555Z 11007KT 04/04 A2996 RMK A01 T00420037  RH  099%=      5-min Rain = 0
KGHS 221600Z 11007KT 04/04 A2996 RMK A01 T00420037  RH  099%=      5-min Rain = 0
KGHS 221605Z 10006KT 04/04 A2996 RMK A01 T00430039  RH  099%=      5-min Rain = 0
KGHS 221610Z 09007KT 05/04 A2996 RMK A01 T00450040  RH  099%=      5-min Rain = 0
KGHS 221615Z 10006KT 05/04 A2996 RMK A01 T00460041  RH  099%=      5-min Rain = 0
KGHS 221620Z 10006KT 05/04 A2996 RMK A01 T00460042  RH  099%=      5-min Rain = 0
KGHS 221625Z 11006KT 05/04 A2995 RMK A01 T00470042  RH  099%=      5-min Rain = 0
KGHS 221630Z 08006KT 05/04 A2995 RMK A01 T00490044  RH  099%=      5-min Rain = 0
KGHS 221635Z 08006KT 05/05 A2995 RMK A01 T00500045  RH  099%=      5-min Rain = 0
KGHS 221640Z 08006KT 05/05 A2995 RMK A01 T00500045  RH  099%=      5-min Rain = 0
KGHS 221645Z 07006KT 05/05 A2994 RMK A01 T00500045  RH  099%=      5-min Rain = 0
KGHS 221650Z 08005KT 05/05 A2994 RMK A01 T00510046  RH  099%=      5-min Rain = 0
KGHS 221655Z 08006KT 05/05 A2994 RMK A01 T00520046  RH  099%=      5-min Rain = 0
KGHS 221700Z 09005KT 05/05 A2994 RMK A01 T00530048  RH  099%=      5-min Rain = 0
KGHS 221705Z 08004KT 05/05 A2994 RMK A01 T00540048  RH  099%=      5-min Rain = 0
KGHS 221710Z 08004KT 06/05 A2994 RMK A01 T00560050  RH  099%=      5-min Rain = 0
KGHS 221715Z 07004KT 06/05 A2994 RMK A01 T00560050  RH  098%=      5-min Rain = 0
KGHS 221720Z 10003KT 06/05 A2994 RMK A01 T00550050  RH  098%=      5-min Rain = 0
KGHS 221725Z 08003KT 06/05 A2994 RMK A01 T00570052  RH  098%=      5-min Rain = 0
KGHS 221730Z 11004KT 06/05 A2994 RMK A01 T00580053  RH  098%=      5-min Rain = 0
KGHS 221735Z 08002KT 06/05 A2994 RMK A01 T00580052  RH  098%=      5-min Rain = 0
KGHS 221740Z 08003KT 06/06 A2993 RMK A01 T00600055  RH  098%=      5-min Rain = 0
KGHS 221745Z 06003KT 06/06 A2993 RMK A01 T00610056  RH  098%=      5-min Rain = 0
KGHS 221750Z 09003KT 06/06 A2993 RMK A01 T00620056  RH  098%=      5-min Rain = 0
KGHS 221755Z 11004KT 06/06 A2993 RMK A01 T00640058  RH  098%=      5-min Rain = 0
KGHS 221800Z 10003KT 06/06 A2993 RMK A01 T00640059  RH  098%=      5-min Rain = 0
KGHS 221805Z 12004KT 07/06 A2992 RMK A01 T00660060  RH  099%=      5-min Rain = 0
KGHS 221810Z 12003KT 07/06 A2992 RMK A01 T00650059  RH  098%=      5-min Rain = 0
KGHS 221815Z 10003KT 07/06 A2991 RMK A01 T00680062  RH  099%=      5-min Rain = 0
KGHS 221820Z 11003KT 07/06 A2991 RMK A01 T00700064  RH  099%=      5-min Rain = 0
KGHS 221825Z 14005KT 07/07 A2991 RMK A01 T00710065  RH  099%=      5-min Rain = 0
KGHS 221830Z 14005KT 07/07 A2991 RMK A01 T00710065  RH  098%=      5-min Rain = 0
KGHS 221835Z 12004KT 07/06 A299 RMK A01 T00700064  RH  098%=      5-min Rain = 0
KGHS 221840Z 14002KT 07/07 A299 RMK A01 T00720066  RH  098%=      5-min Rain = 0
KGHS 221845Z 10003KT 07/07 A299 RMK A01 T00730067  RH  098%=      5-min Rain = 0
KGHS 221850Z 11002KT 07/07 A299 RMK A01 T00720065  RH  098%=      5-min Rain = 0
KGHS 221855Z 11004KT 07/06 A2989 RMK A01 T00700064  RH  098%=      5-min Rain = 0
KGHS 221900Z 12003KT 07/07 A2989 RMK A01 T00720065  RH  098%=      5-min Rain = 0
KGHS 221905Z 12004KT 07/07 A299 RMK A01 T00720066  RH  098%=      5-min Rain = 0
KGHS 221910Z 12004KT 07/07 A2989 RMK A01 T00720065  RH  098%=      5-min Rain = 0
KGHS 221915Z 15004KT 07/07 A2989 RMK A01 T00730066  RH  098%=      5-min Rain = 0
KGHS 221920Z 17002KT 07/07 A2989 RMK A01 T00730066  RH  098%=      5-min Rain = 0
KGHS 221925Z 13001KT 07/07 A2988 RMK A01 T00730065  RH  097%=      5-min Rain = 0
KGHS 221930Z 13003KT 07/07 A2988 RMK A01 T00740067  RH  097%=      5-min Rain = 0
KGHS 221935Z 14003KT 08/07 A2988 RMK A01 T00750066  RH  097%=      5-min Rain = 0
KGHS 221940Z 12004KT 08/07 A2988 RMK A01 T00750066  RH  097%=      5-min Rain = 0
KGHS 221945Z 12004KT 08/07 A2987 RMK A01 T00750065  RH  096%=      5-min Rain = 0
KGHS 221950Z 06004KT 08/07 A2986 RMK A01 T00770066  RH  095%=      5-min Rain = 0
KGHS 221955Z 13004KT 08/07 A2986 RMK A01 T00780065  RH  094%=      5-min Rain = 0
KGHS 222000Z 13004KT 08/07 A2987 RMK A01 T00790065  RH  093%=      5-min Rain = 0
KGHS 222005Z 10003G8KT 08/06 A2987 RMK A01 T00790064  RH  092%=      5-min Rain = 0
KGHS 222010Z 09006KT 08/06 A2986 RMK A01 T00790062  RH  091%=      5-min Rain = 0
KGHS 222015Z 09006KT 08/06 A2987 RMK A01 T00800062  RH  090%=      5-min Rain = 0
KGHS 222020Z 08006KT 08/06 A2986 RMK A01 T00810062  RH  090%=      5-min Rain = 0
KGHS 222025Z 09006KT 08/06 A2986 RMK A01 T00820062  RH  089%=      5-min Rain = 0
KGHS 222030Z 09005KT 08/06 A2985 RMK A01 T00820061  RH  089%=      5-min Rain = 0
KGHS 222035Z 07005KT 08/06 A2985 RMK A01 T00840062  RH  088%=      5-min Rain = 0
KGHS 222040Z 06007G12KT 08/06 A2985 RMK A01 T00840062  RH  088%=      5-min Rain = 0
KGHS 222045Z 05009KT 08/06 A2984 RMK A01 T00830060  RH  088%=      5-min Rain = 0
KGHS 222050Z 06009KT 08/06 A2984 RMK A01 T00840061  RH  088%=      5-min Rain = 0
KGHS 222055Z 06010KT 09/06 A2984 RMK A01 T00850061  RH  087%=      5-min Rain = 0
KGHS 222100Z 07010KT 09/06 A2984 RMK A01 T00850060  RH  086%=      5-min Rain = 0
KGHS 222105Z 07007KT 09/06 A2983 RMK A01 T00860062  RH  087%=      5-min Rain = 0
KGHS 222110Z 07008KT 09/06 A2983 RMK A01 T00900062  RH  085%=      5-min Rain = 0
KGHS 222115Z 07009KT 09/06 A2983 RMK A01 T00900063  RH  085%=      5-min Rain = 0
KGHS 222120Z 07009KT 09/06 A2983 RMK A01 T00920063  RH  084%=      5-min Rain = 0
KGHS 222125Z 07007KT 09/06 A2983 RMK A01 T00920063  RH  084%=      5-min Rain = 0
KGHS 222130Z 07007KT 10/06 A2983 RMK A01 T00950063  RH  083%=      5-min Rain = 0
KGHS 222135Z 08008KT 10/06 A2983 RMK A01 T00950062  RH  082%=      5-min Rain = 0
KGHS 222140Z 08009KT 10/06 A2982 RMK A01 T00960063  RH  082%=      5-min Rain = 0
KGHS 222145Z 08009KT 10/06 A2982 RMK A01 T00960063  RH  082%=      5-min Rain = 0
KGHS 222150Z 06009KT 10/06 A2982 RMK A01 T00950063  RH  082%=      5-min Rain = 0
KGHS 222155Z 07008KT 10/06 A2982 RMK A01 T00950063  RH  083%=      5-min Rain = 0
KGHS 222200Z 07009KT 09/06 A2982 RMK A01 T00930062  RH  083%=      5-min Rain = 0
KGHS 222205Z 08008KT 09/06 A2982 RMK A01 T00930063  RH  083%=      5-min Rain = 0
KGHS 222210Z 07008KT 09/06 A2982 RMK A01 T00930063  RH  084%=      5-min Rain = 0
KGHS 222215Z 05008G13KT 09/06 A2982 RMK A01 T00930064  RH  084%=      5-min Rain = 0
KGHS 222220Z 06010KT 10/07 A2982 RMK A01 T00960065  RH  083%=      5-min Rain = 0
KGHS 222225Z 07010KT 10/06 A2982 RMK A01 T00960064  RH  082%=      5-min Rain = 0
KGHS 222230Z 07008G13KT 10/07 A2981 RMK A01 T00960065  RH  083%=      5-min Rain = 0
KGHS 222235Z 08010KT 10/07 A2981 RMK A01 T00980065  RH  082%=      5-min Rain = 0
KGHS 222240Z 07010KT 10/07 A2981 RMK A01 T01000066  RH  081%=      5-min Rain = 0
KGHS 222245Z 06011G16KT 10/07 A298 RMK A01 T01000065  RH  081%=      5-min Rain = 0
KGHS 222250Z 07013KT 09/06 A298 RMK A01 T00940063  RH  083%=      5-min Rain = 0
KGHS 222255Z 08011KT 09/06 A298 RMK A01 T00900063  RH  086%=      5-min Rain = 0
KGHS 222300Z 07013KT 09/06 A298 RMK A01 T00870063  RH  087%=      5-min Rain = 0
KGHS 222305Z 07013KT 09/06 A2979 RMK A01 T00850063  RH  088%=      5-min Rain = 0
KGHS 222310Z 07011KT 09/06 A2979 RMK A01 T00850063  RH  088%=      5-min Rain = 0
KGHS 222315Z 07010G15KT 08/06 A2979 RMK A01 T00820063  RH  090%=      5-min Rain = 0
KGHS 222320Z 08011KT 08/06 A2979 RMK A01 T00810062  RH  090%=      5-min Rain = 0
KGHS 222325Z 08011KT 08/06 A2979 RMK A01 T00790062  RH  091%=      5-min Rain = 0
KGHS 222330Z 07012KT 08/06 A2979 RMK A01 T00780062  RH  092%=      5-min Rain = 0
KGHS 222335Z 08011KT 08/06 A2979 RMK A01 T00780063  RH  092%=      5-min Rain = 0
KGHS 222340Z 07010KT 08/06 A2979 RMK A01 T00770062  RH  093%=      5-min Rain = 0
KGHS 222345Z 09011KT 08/06 A2979 RMK A01 T00770063  RH  093%=      5-min Rain = 0
KGHS 222350Z 09010KT 08/06 A2979 RMK A01 T00770063  RH  093%=      5-min Rain = 0
KGHS 222355Z 07011KT 08/06 A2979 RMK A01 T00760063  RH  093%=      5-min Rain = 0
KGHS 230000Z 08011KT 08/06 A2979 RMK A01 T00760063  RH  094%=      5-min Rain = 0
KGHS 230005Z 08011G16KT 08/06 A2979 RMK A01 T00750063  RH  094%=      5-min Rain = 0
KGHS 230010Z 08011KT 08/06 A2978 RMK A01 T00750063  RH  095%=      5-min Rain = 0
KGHS 230015Z 08013KT 07/06 A2978 RMK A01 T00740063  RH  095%=      5-min Rain = 0
KGHS 230020Z 08014KT 07/06 A2978 RMK A01 T00730062  RH  095%=      5-min Rain = 0
KGHS 230025Z 08011KT 07/06 A2978 RMK A01 T00720062  RH  096%=      5-min Rain = 0
KGHS 230030Z 08012KT 07/06 A2978 RMK A01 T00710061  RH  096%=      5-min Rain = 0
KGHS 230035Z 08011KT 07/06 A2978 RMK A01 T00690060  RH  096%=      5-min Rain = 0
KGHS 230040Z 08014KT 07/06 A2978 RMK A01 T00690060  RH  096%=      5-min Rain = 0
KGHS 230045Z 08010KT 07/06 A2978 RMK A01 T00680059  RH  097%=      5-min Rain = 0
KGHS 230050Z 08012G17KT 07/06 A2978 RMK A01 T00670059  RH  097%=      5-min Rain = 0
KGHS 230055Z 08011G16KT 07/06 A2978 RMK A01 T00670059  RH  097%=      5-min Rain = 0
KGHS 230100Z 08010KT 07/06 A2978 RMK A01 T00670059  RH  097%=      5-min Rain = 0
KGHS 230105Z 08010KT 07/06 A2978 RMK A01 T00670060  RH  097%=      5-min Rain = 0
KGHS 230110Z 08011G17KT 07/06 A2978 RMK A01 T00680060  RH  097%=      5-min Rain = 0
KGHS 230115Z 08010KT 07/06 A2978 RMK A01 T00680060  RH  097%=      5-min Rain = 0
KGHS 230120Z 08011KT 07/06 A2978 RMK A01 T00680061  RH  098%=      5-min Rain = 0
KGHS 230125Z 09011KT 07/06 A2978 RMK A01 T00680061  RH  098%=      5-min Rain = 0
KGHS 230130Z 09011KT 07/06 A2978 RMK A01 T00690062  RH  098%=      5-min Rain = 0
KGHS 230135Z 08010G15KT 07/06 A2978 RMK A01 T00690062  RH  098%=      5-min Rain = 0
KGHS 230140Z 08013G18KT 07/06 A2978 RMK A01 T00690062  RH  098%=      5-min Rain = 0
KGHS 230145Z 08012G17KT 07/06 A2978 RMK A01 T00690062  RH  098%=      5-min Rain = 0
KGHS 230150Z 08012G17KT 07/06 A2978 RMK A01 T00690062  RH  098%=      5-min Rain = 0
KGHS 230155Z 08014G19KT 07/06 A2978 RMK A01 T00690062  RH  098%=      5-min Rain = 0
KGHS 230200Z 08014G20KT 07/06 A2978 RMK A01 T00690062  RH  098%=      5-min Rain = 0
KGHS 230205Z 08014KT 07/06 A2978 RMK A01 T00690063  RH  098%=      5-min Rain = 0
KGHS 230210Z 08014KT 07/06 A2978 RMK A01 T00690063  RH  098%=      5-min Rain = 0
KGHS 230215Z 08016G21KT 07/06 A2977 RMK A01 T00700064  RH  098%=      5-min Rain = 0
KGHS 230220Z 09015KT 07/06 A2977 RMK A01 T00700064  RH  098%=      5-min Rain = 0
KGHS 230225Z 08015G20KT 07/06 A2976 RMK A01 T00700064  RH  098%=      5-min Rain = 0
KGHS 230230Z 08014G19KT 07/06 A2976 RMK A01 T00700064  RH  098%=      5-min Rain = 0
KGHS 230235Z 09014G20KT 07/07 A2975 RMK A01 T00710065  RH  098%=      5-min Rain = 0
KGHS 230240Z 08014G20KT 07/06 A2975 RMK A01 T00700064  RH  098%=      5-min Rain = 0
KGHS 230245Z 08014G20KT 07/06 A2975 RMK A01 T00700064  RH  098%=      5-min Rain = 0
KGHS 230250Z 09014G19KT 07/06 A2975 RMK A01 T00700064  RH  098%=      5-min Rain = 0
KGHS 230255Z 08013G19KT 07/06 A2975 RMK A01 T00700064  RH  098%=      5-min Rain = 0
KGHS 230300Z 08012G18KT 07/06 A2974 RMK A01 T00690063  RH  098%=      5-min Rain = 0
KGHS 230305Z 09014G19KT 07/06 A2973 RMK A01 T00700064  RH  099%=      5-min Rain = 0
KGHS 230310Z 08016G21KT 07/06 A2973 RMK A01 T00700064  RH  099%=      5-min Rain = 0
KGHS 230315Z 08015G21KT 07/07 A2973 RMK A01 T00700065  RH  099%=      5-min Rain = 0
KGHS 230320Z 08016G22KT 07/06 A2973 RMK A01 T00700064  RH  099%=      5-min Rain = 0
KGHS 230325Z 08015G21KT 07/06 A2973 RMK A01 T00700064  RH  099%=      5-min Rain = 0
KGHS 230330Z 09016G22KT 07/07 A2973 RMK A01 T00700065  RH  099%=      5-min Rain = 0
KGHS 230335Z 09015G20KT 07/07 A2973 RMK A01 T00700065  RH  099%=      5-min Rain = 0
KGHS 230340Z 09014G20KT 07/07 A2974 RMK A01 T00700065  RH  099%=      5-min Rain = 0
KGHS 230345Z 09015G21KT 07/07 A2973 RMK A01 T00700065  RH  099%=      5-min Rain = 0
KGHS 230350Z 09014KT 07/07 A2973 RMK A01 T00700065  RH  099%=      5-min Rain = 0
KGHS 230355Z 08015G20KT 07/06 A2973 RMK A01 T00700064  RH  099%=      5-min Rain = 0
KGHS 230400Z 09016G21KT 07/06 A2973 RMK A01 T00700064  RH  099%=      5-min Rain = 0
KGHS 230405Z 09016G22KT 07/06 A2973 RMK A01 T00690064  RH  099%=      5-min Rain = 0
KGHS 230410Z 09015G22KT 07/06 A2973 RMK A01 T00690063  RH  099%=      5-min Rain = 0
KGHS 230415Z 08013G18KT 07/06 A2973 RMK A01 T00690063  RH  099%=      5-min Rain = 0
KGHS 230420Z 09015KT 07/06 A2973 RMK A01 T00690064  RH  099%=      5-min Rain = 0
KGHS 230425Z 09019G24KT 07/06 A2971 RMK A01 T00690064  RH  099%=      5-min Rain = 0
KGHS 230430Z 09017KT 07/06 A2972 RMK A01 T00690064  RH  099%=      5-min Rain = 0
KGHS 230435Z 09014G20KT 07/07 A2973 RMK A01 T00700065  RH  099%=      5-min Rain = 0
KGHS 230440Z 08012G19KT 07/07 A2973 RMK A01 T00700065  RH  099%=      5-min Rain = 0
KGHS 230445Z 09015G21KT 07/07 A2972 RMK A01 T00700065  RH  099%=      5-min Rain = 0
KGHS 230450Z 09017KT 07/07 A2972 RMK A01 T00710066  RH  099%=      5-min Rain = 0
KGHS 230455Z 10015G21KT 07/07 A2971 RMK A01 T00720067  RH  099%=      5-min Rain = 0
KGHS 230500Z 09016KT 07/07 A297 RMK A01 T00720067  RH  099%=      5-min Rain = 0
KGHS 230505Z 09013KT 07/07 A2971 RMK A01 T00720067  RH  099%=      5-min Rain = 0
KGHS 230510Z 09013KT 07/07 A2971 RMK A01 T00720067  RH  099%=      5-min Rain = 0.01
KGHS 230515Z 09014G19KT 07/07 A297 RMK A01 T00730068  RH  099%=      5-min Rain = 0
KGHS 230520Z 09015G21KT 07/07 A2969 RMK A01 T00730068  RH  099%=      5-min Rain = 0
KGHS 230525Z 09017KT 07/07 A2969 RMK A01 T00740068  RH  099%=      5-min Rain = 0
KGHS 230530Z 09016G21KT 08/07 A2969 RMK A01 T00750070  RH  099%=      5-min Rain = 0
KGHS 230535Z 09016G22KT 08/07 A2969 RMK A01 T00750070  RH  099%=      5-min Rain = 0
KGHS 230540Z 09013G18KT 08/07 A297 RMK A01 T00750070  RH  099%=      5-min Rain = 0
KGHS 230545Z 09012KT 07/07 A297 RMK A01 T00740069  RH  099%=      5-min Rain = 0
KGHS 230550Z 10014KT 07/07 A2969 RMK A01 T00740069  RH  099%=      5-min Rain = 0
KGHS 230555Z 10012KT 07/07 A2969 RMK A01 T00740069  RH  099%=      5-min Rain = 0

Page generated in 0.0125 seconds.